首页
METAR-TAF:

METAR-TAF

机场 :

赤塔機場

赤塔, 俄罗斯

纬度: 52-05N, 经度: 113-29E, 海拔: 685米

当前天气观测

该预报发布于46分钟前的08:30 UTC
风速12节,风向西北,有时为21节阵风
温度 25°C
湿度 15%
气压 1001 hPa
能见度10公里或以上

METAR: UIAA 160830Z 31006G11MPS 9999 NSC 25/M03 Q1001 R29/70D NOSIG RMK QFE693/0924

时间: 18:16 (09:16 UTC)

预报

该预报发布于1小时和16分钟前的08:00 UTC
预报有效从16日的 09点(UTC)到 17日的 09点(UTC)
风速10节,风向北转西北,有时为19节阵风
能见度10公里或以上
散云层高于4000英尺, 积雨云.
短暂存在
从 16日的 09点(UTC)到 17日的 09点(UTC)
风速6节,风向东北,有时为16节阵风

TAF: UIAA 160800Z 1609/1709 34005G10MPS 9999 SCT040CB TEMPO 1609/1709 04003G08MPS

超过4000个机场的气象观测和天气预报(METAR&TAF报告)。

可查询的气象台以黄色和红色小点在地图上表示。

将鼠标移到小点上方,可查看气象台名称。

然后点击查看天气观测和预报。

如需切换地图:点击带黑十字的绿色按钮放大地图;点击带横线的绿色按钮缩小地图;或者点击绿色箭头查看邻近地区的地图。


METAR-TAF: